createdAt,value
2018-11-03T00:00:46.598Z,0.27
2018-11-03T00:03:20.185Z,0.34
2018-11-03T00:05:54.296Z,0.26
2018-11-03T00:08:27.096Z,0.16
2018-11-03T00:11:02.497Z,0.02
2018-11-03T00:13:36.391Z,0.02
2018-11-03T00:16:11.991Z,0.08
2018-11-03T00:18:46.365Z,0.10
2018-11-03T00:21:19.085Z,0.03
2018-11-03T00:23:54.065Z,0.02
2018-11-03T00:26:28.733Z,-0.01
2018-11-03T00:29:03.350Z,-0.08
2018-11-03T00:31:38.578Z,-0.11
2018-11-03T00:34:11.599Z,-0.15
2018-11-03T00:36:45.034Z,-0.14
2018-11-03T00:39:30.585Z,-0.18
2018-11-03T00:42:04.659Z,-0.22
2018-11-03T00:44:37.217Z,-0.25
2018-11-03T00:47:11.078Z,-0.34
2018-11-03T00:49:44.458Z,-0.37
2018-11-03T00:52:19.944Z,-0.34
2018-11-03T00:54:54.003Z,-0.32
2018-11-03T00:57:27.476Z,-0.38
2018-11-03T01:00:00.086Z,-0.36
2018-11-03T01:02:34.722Z,-0.18
2018-11-03T01:05:09.904Z,-0.10
2018-11-03T01:08:07.346Z,-0.14
2018-11-03T01:10:42.046Z,-0.22
2018-11-03T01:13:15.579Z,-0.26
2018-11-03T01:15:49.416Z,-0.20
2018-11-03T01:18:23.098Z,-0.11
2018-11-03T01:20:57.396Z,-0.05
2018-11-03T01:23:30.160Z,-0.06
2018-11-03T01:26:03.296Z,-0.03
2018-11-03T01:28:37.298Z,-0.03
2018-11-03T01:31:12.377Z,0.15
2018-11-03T01:33:46.415Z,0.24
2018-11-03T01:36:20.039Z,0.25
2018-11-03T01:38:53.557Z,0.23
2018-11-03T01:41:26.350Z,0.13
2018-11-03T01:43:59.284Z,0.10
2018-11-03T01:46:31.943Z,0.26
2018-11-03T01:49:06.191Z,0.42
2018-11-03T01:51:41.773Z,0.44
2018-11-03T01:54:14.379Z,0.44
2018-11-03T01:56:49.405Z,0.49
2018-11-03T01:59:25.789Z,0.50
2018-11-03T02:01:59.522Z,0.44
2018-11-03T02:04:33.266Z,0.41
2018-11-03T02:07:06.718Z,0.50
2018-11-03T02:09:42.153Z,0.52
2018-11-03T02:12:19.851Z,0.51
2018-11-03T02:15:18.415Z,0.53
2018-11-03T02:18:03.150Z,0.56
2018-11-03T02:20:36.652Z,0.52
2018-11-03T02:23:10.387Z,0.53
2018-11-03T02:25:44.954Z,0.49
2018-11-03T02:28:17.722Z,0.48
2018-11-03T02:30:50.897Z,0.50
2018-11-03T02:33:23.441Z,0.53
2018-11-03T02:35:56.018Z,0.53
2018-11-03T02:38:29.400Z,0.52
2018-11-03T02:41:02.228Z,0.58
2018-11-03T02:43:37.743Z,0.54
2018-11-03T02:46:10.850Z,0.51
2018-11-03T02:48:43.394Z,0.52
2018-11-03T02:51:17.903Z,0.51
2018-11-03T02:53:52.738Z,0.48
2018-11-03T02:56:25.482Z,0.45
2018-11-03T02:58:58.002Z,0.49
2018-11-03T03:01:30.621Z,0.63
2018-11-03T03:04:03.585Z,0.68
2018-11-03T03:06:40.651Z,0.76
2018-11-03T03:09:13.753Z,0.88
2018-11-03T03:11:47.667Z,0.88
2018-11-03T03:14:20.757Z,0.90
2018-11-03T03:16:53.451Z,0.95
2018-11-03T03:19:26.979Z,0.86
2018-11-03T03:22:00.485Z,0.66
2018-11-03T03:24:33.178Z,0.47
2018-11-03T03:27:06.986Z,0.35
2018-11-03T03:29:40.294Z,0.25
2018-11-03T03:32:12.827Z,0.22
2018-11-03T03:34:47.007Z,0.25
2018-11-03T03:37:19.611Z,0.35
2018-11-03T03:39:52.450Z,0.24
2018-11-03T03:42:25.965Z,0.04
2018-11-03T03:44:58.493Z,-0.11
2018-11-03T03:47:31.293Z,-0.15
2018-11-03T03:50:10.223Z,-0.07
2018-11-03T03:52:42.763Z,-0.05
2018-11-03T03:55:15.734Z,-0.11
2018-11-03T03:57:49.354Z,-0.11
2018-11-03T04:00:22.006Z,-0.12
2018-11-03T04:02:54.950Z,-0.17
2018-11-03T04:05:27.917Z,-0.21
2018-11-03T04:08:00.489Z,-0.29
2018-11-03T04:10:33.337Z,-0.23
2018-11-03T04:13:06.813Z,-0.36
2018-11-03T04:15:39.475Z,-0.53
2018-11-03T04:18:12.030Z,-0.56
2018-11-03T04:20:46.150Z,-0.58
2018-11-03T04:23:18.631Z,-0.64
2018-11-03T04:25:51.222Z,-0.68
2018-11-03T04:28:33.585Z,-0.66
2018-11-03T04:31:06.391Z,-0.48
2018-11-03T04:33:49.870Z,-0.31
2018-11-03T04:36:31.872Z,-0.29
2018-11-03T04:39:13.958Z,-0.43
2018-11-03T04:41:52.517Z,-0.58
2018-11-03T04:44:33.818Z,-0.63
2018-11-03T04:47:21.518Z,-0.51
2018-11-03T04:50:00.375Z,-0.45
2018-11-03T04:52:42.056Z,-0.60
2018-11-03T04:55:22.765Z,-0.73
2018-11-03T04:58:02.262Z,-0.74
2018-11-03T05:00:46.381Z,-0.83
2018-11-03T05:03:26.982Z,-0.88
2018-11-03T05:06:07.432Z,-0.80
2018-11-03T05:08:47.990Z,-0.75
2018-11-03T05:11:30.396Z,-0.74
2018-11-03T05:14:09.463Z,-0.74
2018-11-03T05:16:50.430Z,-0.63
2018-11-03T05:19:36.031Z,-0.59
2018-11-03T05:22:18.277Z,-0.49
2018-11-03T05:24:59.388Z,-0.52
2018-11-03T05:27:41.867Z,-0.74
2018-11-03T05:30:27.104Z,-0.85
2018-11-03T05:33:08.844Z,-0.69
2018-11-03T05:35:49.520Z,-0.73
2018-11-03T05:38:29.945Z,-0.79
2018-11-03T05:41:09.348Z,-0.81
2018-11-03T05:43:53.820Z,-0.89
2018-11-03T05:46:36.245Z,-1.02
2018-11-03T05:49:15.759Z,-1.07
2018-11-03T05:51:56.754Z,-0.98
2018-11-03T05:55:00.406Z,-0.98
2018-11-03T05:57:42.649Z,-0.93
2018-11-03T06:00:25.219Z,-1.11
2018-11-03T06:03:06.345Z,-1.18
2018-11-03T06:05:50.453Z,-1.13
2018-11-03T06:08:30.929Z,-0.63
2018-11-03T06:11:18.570Z,-0.23
2018-11-03T06:14:08.353Z,-0.26
2018-11-03T06:16:43.572Z,-0.47
2018-11-03T06:19:33.165Z,-0.65
2018-11-03T06:22:18.188Z,-0.75
2018-11-03T06:24:59.757Z,-0.66
2018-11-03T06:27:41.856Z,-0.74
2018-11-03T06:30:16.465Z,-0.80
2018-11-03T06:32:48.993Z,-0.80
2018-11-03T06:35:21.926Z,-0.78
2018-11-03T06:37:55.999Z,-0.69
2018-11-03T06:40:29.584Z,-0.74
2018-11-03T06:43:02.409Z,-0.72
2018-11-03T06:45:35.017Z,-0.80
2018-11-03T06:48:08.437Z,-0.86
2018-11-03T06:50:46.917Z,-0.88
2018-11-03T06:53:21.451Z,-0.92
2018-11-03T06:55:55.636Z,-0.91
2018-11-03T06:58:28.543Z,-0.82
2018-11-03T07:01:06.845Z,-0.70
2018-11-03T07:04:04.520Z,-0.59
2018-11-03T07:06:52.935Z,-0.34
2018-11-03T07:09:27.198Z,-0.18
2018-11-03T07:12:03.582Z,0.02
2018-11-03T07:14:37.467Z,0.08
2018-11-03T07:17:10.060Z,0.05
2018-11-03T07:19:43.428Z,-0.01
2018-11-03T07:22:19.217Z,0.01
2018-11-03T07:24:54.671Z,0.16
2018-11-03T07:27:28.296Z,0.32
2018-11-03T07:30:09.242Z,0.43
2018-11-03T07:32:45.854Z,0.62
2018-11-03T07:35:18.350Z,0.81
2018-11-03T07:37:54.860Z,0.95
2018-11-03T07:40:27.618Z,1.05
2018-11-03T07:43:03.329Z,1.16
2018-11-03T07:45:39.910Z,1.27
2018-11-03T07:48:28.836Z,1.26
2018-11-03T07:51:06.164Z,1.26
2018-11-03T07:53:40.702Z,1.31
2018-11-03T07:56:14.561Z,1.40
2018-11-03T07:58:52.821Z,1.52
2018-11-03T08:01:27.565Z,1.64
2018-11-03T08:04:02.765Z,1.74
2018-11-03T08:06:36.436Z,1.83
2018-11-03T08:09:11.157Z,1.88
2018-11-03T08:11:44.222Z,1.98
2018-11-03T08:14:20.711Z,2.10
2018-11-03T08:17:14.350Z,2.20
2018-11-03T08:19:47.615Z,2.27
2018-11-03T08:22:21.710Z,2.37
2018-11-03T08:24:55.586Z,2.48
2018-11-03T08:27:28.084Z,2.49
2018-11-03T08:30:16.028Z,2.51
2018-11-03T08:32:58.424Z,2.58
2018-11-03T08:35:43.491Z,2.60
2018-11-03T08:38:21.649Z,2.61
2018-11-03T08:40:55.551Z,2.67
2018-11-03T08:43:30.713Z,2.75
2018-11-03T08:46:08.455Z,2.77
2018-11-03T08:48:44.550Z,2.85
2018-11-03T08:51:22.521Z,3.03
2018-11-03T08:54:01.208Z,3.08
2018-11-03T08:56:40.579Z,3.14
2018-11-03T08:59:34.848Z,3.21
2018-11-03T09:02:41.688Z,3.41
2018-11-03T09:05:19.786Z,3.60
2018-11-03T09:08:08.332Z,3.81
2018-11-03T09:10:42.399Z,3.91
2018-11-03T09:13:20.441Z,4.02
2018-11-03T09:16:07.898Z,4.15
2018-11-03T09:18:43.600Z,4.25
2018-11-03T09:21:19.694Z,4.38
2018-11-03T09:23:55.490Z,4.50
2018-11-03T09:26:30.561Z,4.76
2018-11-03T09:29:04.647Z,4.95
2018-11-03T09:31:40.290Z,5.12
2018-11-03T09:34:17.719Z,5.40
2018-11-03T09:36:51.924Z,5.62
2018-11-03T09:39:26.506Z,5.93
2018-11-03T09:42:04.054Z,6.09
2018-11-03T09:44:38.808Z,6.25
2018-11-03T09:47:20.982Z,6.56
2018-11-03T09:49:59.637Z,6.90
2018-11-03T09:52:34.071Z,7.13
2018-11-03T09:55:20.719Z,7.51
2018-11-03T09:58:23.648Z,7.54
2018-11-03T10:01:06.014Z,7.72
2018-11-03T10:03:44.706Z,8.02
2018-11-03T10:06:21.208Z,8.22
2018-11-03T10:08:54.840Z,8.45
2018-11-03T10:11:28.779Z,8.82
2018-11-03T10:14:03.113Z,9.02
2018-11-03T10:16:38.035Z,9.07
2018-11-03T10:19:12.854Z,9.15
2018-11-03T10:21:48.439Z,9.25
2018-11-03T10:24:24.024Z,9.10
2018-11-03T10:27:42.785Z,8.86
2018-11-03T10:30:36.754Z,8.82
2018-11-03T10:33:26.429Z,8.96
2018-11-03T10:36:04.264Z,9.19
2018-11-03T10:38:42.661Z,9.36
2018-11-03T10:41:25.344Z,9.46
2018-11-03T10:43:59.998Z,9.59
2018-11-03T10:46:43.176Z,9.68
2018-11-03T10:49:26.282Z,9.83
2018-11-03T10:52:06.342Z,9.81
2018-11-03T10:54:41.437Z,9.74
2018-11-03T10:57:22.287Z,9.79
2018-11-03T10:59:58.567Z,9.91
2018-11-03T11:02:44.669Z,9.99
2018-11-03T11:05:28.749Z,10.09
2018-11-03T11:08:12.280Z,10.24
2018-11-03T11:10:55.378Z,10.29
2018-11-03T11:13:30.349Z,10.48
2018-11-03T11:16:04.379Z,10.82
2018-11-03T11:18:37.603Z,11.08
2018-11-03T11:21:12.562Z,11.35
2018-11-03T11:23:49.308Z,11.70
2018-11-03T11:26:22.980Z,12.02
2018-11-03T11:29:12.780Z,12.05
2018-11-03T11:31:50.698Z,12.08
2018-11-03T11:34:25.406Z,12.02
2018-11-03T11:36:59.577Z,11.88
2018-11-03T11:39:32.370Z,11.86
2018-11-03T11:42:07.022Z,11.59
2018-11-03T11:44:42.048Z,11.44
2018-11-03T11:47:14.623Z,11.53
2018-11-03T11:49:52.521Z,11.55
2018-11-03T11:52:29.696Z,11.35
2018-11-03T11:55:07.551Z,11.32
2018-11-03T11:57:40.022Z,11.33
2018-11-03T12:00:16.285Z,11.19
2018-11-03T12:02:49.216Z,11.04
2018-11-03T12:05:31.693Z,11.11
2018-11-03T12:08:20.965Z,11.08
2018-11-03T12:11:29.632Z,11.09
2018-11-03T12:14:23.467Z,11.10
2018-11-03T12:17:02.537Z,11.16
2018-11-03T12:19:38.512Z,11.23
2018-11-03T12:22:16.037Z,11.22
2018-11-03T12:24:51.666Z,11.23
2018-11-03T12:27:27.076Z,11.28
2018-11-03T12:30:03.179Z,11.42
2018-11-03T12:32:35.823Z,11.52
2018-11-03T12:35:14.859Z,11.66
2018-11-03T12:37:51.790Z,11.71
2018-11-03T12:40:26.261Z,11.79
2018-11-03T12:43:02.574Z,11.95
2018-11-03T12:45:36.708Z,11.97
2018-11-03T12:48:14.771Z,12.00
2018-11-03T12:50:50.755Z,12.09
2018-11-03T12:53:29.974Z,12.23
2018-11-03T12:56:05.623Z,12.50
2018-11-03T12:58:41.446Z,12.70
2018-11-03T13:01:16.988Z,12.87
2018-11-03T13:04:01.296Z,12.93
2018-11-03T13:06:44.495Z,12.92
2018-11-03T13:09:24.843Z,12.90
2018-11-03T13:12:00.588Z,13.01
2018-11-03T13:14:36.413Z,13.16
2018-11-03T13:17:11.040Z,13.19
2018-11-03T13:19:46.679Z,13.23
2018-11-03T13:22:21.381Z,13.21
2018-11-03T13:24:59.462Z,13.14
2018-11-03T13:27:33.900Z,13.27
2018-11-03T13:30:15.431Z,13.32
2018-11-03T13:32:49.247Z,13.32
2018-11-03T13:35:26.538Z,13.51
2018-11-03T13:38:05.555Z,13.82
2018-11-03T13:40:45.824Z,14.09
2018-11-03T13:43:19.282Z,14.31
2018-11-03T13:45:53.938Z,14.36
2018-11-03T13:48:27.532Z,14.53
2018-11-03T13:51:01.634Z,14.78
2018-11-03T13:53:39.389Z,14.85
2018-11-03T13:56:14.171Z,14.78
2018-11-03T13:58:48.534Z,14.66
2018-11-03T14:01:25.397Z,14.60
2018-11-03T14:03:59.053Z,14.57
2018-11-03T14:06:35.318Z,14.52
2018-11-03T14:09:13.716Z,14.45
2018-11-03T14:11:48.818Z,14.37
2018-11-03T14:14:24.380Z,14.44
2018-11-03T14:16:59.120Z,14.64
2018-11-03T14:19:35.662Z,14.79
2018-11-03T14:22:11.870Z,14.95
2018-11-03T14:24:46.884Z,15.09
2018-11-03T14:27:38.470Z,15.29
2018-11-03T14:30:17.234Z,15.44
2018-11-03T14:32:53.077Z,15.49
2018-11-03T14:35:25.661Z,15.51
2018-11-03T14:38:03.170Z,15.59
2018-11-03T14:40:35.921Z,15.62
2018-11-03T14:43:13.152Z,15.70
2018-11-03T14:45:50.850Z,15.79
2018-11-03T14:48:24.315Z,15.81
2018-11-03T14:50:59.441Z,15.78
2018-11-03T14:53:32.553Z,15.77
2018-11-03T14:56:09.063Z,15.80
2018-11-03T14:58:44.345Z,15.80
2018-11-03T15:01:28.248Z,15.79
2018-11-03T15:04:04.362Z,15.69
2018-11-03T15:06:37.781Z,15.58
2018-11-03T15:09:13.228Z,15.55
2018-11-03T15:11:48.868Z,15.53
2018-11-03T15:14:25.741Z,15.50
2018-11-03T15:17:14.616Z,15.46
2018-11-03T15:19:49.583Z,15.38
2018-11-03T15:22:25.886Z,15.22
2018-11-03T15:24:59.975Z,15.06
2018-11-03T15:27:33.132Z,14.91
2018-11-03T15:30:12.541Z,14.62
2018-11-03T15:32:46.692Z,14.31
2018-11-03T15:35:25.421Z,13.97
2018-11-03T15:38:01.133Z,13.64
2018-11-03T15:40:39.366Z,13.29
2018-11-03T15:43:17.165Z,12.92
2018-11-03T15:45:55.222Z,12.56
2018-11-03T15:48:32.631Z,12.16
2018-11-03T15:51:08.351Z,11.79
2018-11-03T15:53:44.100Z,11.42
2018-11-03T15:56:32.729Z,11.04
2018-11-03T15:59:09.215Z,10.70
2018-11-03T16:01:44.957Z,10.38
2018-11-03T16:04:30.521Z,10.05
2018-11-03T16:07:12.101Z,9.77
2018-11-03T16:09:46.320Z,9.46
2018-11-03T16:12:22.599Z,9.15
2018-11-03T16:15:03.951Z,8.83
2018-11-03T16:17:47.472Z,8.46
2018-11-03T16:20:21.498Z,8.13
2018-11-03T16:22:56.153Z,7.83
2018-11-03T16:25:34.750Z,7.59
2018-11-03T16:28:10.868Z,7.37
2018-11-03T16:30:49.711Z,7.15
2018-11-03T16:33:28.086Z,6.97
2018-11-03T16:36:01.506Z,6.73
2018-11-03T16:38:38.026Z,6.52
2018-11-03T16:41:11.364Z,6.29
2018-11-03T16:43:47.772Z,6.07
2018-11-03T16:46:22.345Z,5.84
2018-11-03T16:49:02.390Z,5.64
2018-11-03T16:51:41.478Z,5.37
2018-11-03T16:54:17.239Z,5.11
2018-11-03T16:56:54.454Z,4.90
2018-11-03T16:59:29.234Z,4.71
2018-11-03T17:02:04.054Z,4.57
2018-11-03T17:04:39.395Z,4.51
2018-11-03T17:07:13.322Z,4.46
2018-11-03T17:09:46.816Z,4.29
2018-11-03T17:12:28.586Z,4.12
2018-11-03T17:15:04.524Z,3.94
2018-11-03T17:17:40.509Z,3.81
2018-11-03T17:20:19.574Z,3.66
2018-11-03T17:23:09.428Z,3.64
2018-11-03T17:25:46.104Z,3.64
2018-11-03T17:28:22.594Z,3.50
2018-11-03T17:30:57.345Z,3.37
2018-11-03T17:33:32.194Z,3.25
2018-11-03T17:36:06.097Z,3.11
2018-11-03T17:38:39.454Z,3.03
2018-11-03T17:41:21.675Z,2.90
2018-11-03T17:43:57.557Z,2.69
2018-11-03T17:46:36.978Z,2.54
2018-11-03T17:49:14.855Z,2.45
2018-11-03T17:51:57.493Z,2.45
2018-11-03T17:54:37.675Z,2.38
2018-11-03T17:57:11.853Z,2.31
2018-11-03T17:59:49.561Z,2.33
2018-11-03T18:02:25.629Z,2.28
2018-11-03T18:05:00.562Z,2.26
2018-11-03T18:07:40.921Z,2.22
2018-11-03T18:10:40.632Z,2.08
2018-11-03T18:13:27.892Z,2.04
2018-11-03T18:16:05.120Z,2.01
2018-11-03T18:18:42.731Z,2.12
2018-11-03T18:21:20.035Z,2.17
2018-11-03T18:23:55.484Z,2.01
2018-11-03T18:26:33.209Z,1.91
2018-11-03T18:29:10.157Z,1.80
2018-11-03T18:32:00.714Z,1.68
2018-11-03T18:34:46.662Z,1.48
2018-11-03T18:37:24.046Z,1.31
2018-11-03T18:40:05.745Z,1.22
2018-11-03T18:42:42.830Z,1.10
2018-11-03T18:45:34.578Z,1.02
2018-11-03T18:48:10.607Z,0.86
2018-11-03T18:50:44.179Z,0.78
2018-11-03T18:53:26.651Z,0.72
2018-11-03T18:56:03.288Z,0.67
2018-11-03T18:58:50.555Z,0.59
2018-11-03T19:01:38.285Z,0.63
2018-11-03T19:04:29.872Z,0.72
2018-11-03T19:07:09.664Z,0.73
2018-11-03T19:09:50.615Z,0.82
2018-11-03T19:12:25.984Z,0.95
2018-11-03T19:15:06.489Z,0.98
2018-11-03T19:17:48.563Z,0.91
2018-11-03T19:20:25.774Z,0.86
2018-11-03T19:22:59.483Z,0.75
2018-11-03T19:25:38.047Z,0.69
2018-11-03T19:28:15.975Z,0.64
2018-11-03T19:30:52.301Z,0.76
2018-11-03T19:33:35.860Z,0.73
2018-11-03T19:36:15.413Z,0.74
2018-11-03T19:39:01.885Z,0.70
2018-11-03T19:41:40.597Z,0.41
2018-11-03T19:44:18.006Z,0.17
2018-11-03T19:47:00.365Z,0.02
2018-11-03T19:49:36.154Z,-0.06
2018-11-03T19:52:43.919Z,-0.08
2018-11-03T19:55:20.829Z,-0.04
2018-11-03T19:58:06.525Z,-0.11
2018-11-03T20:00:43.576Z,-0.17
2018-11-03T20:03:47.619Z,0.00
2018-11-03T20:06:28.944Z,0.08
2018-11-03T20:09:14.583Z,0.08
2018-11-03T20:11:51.140Z,0.16
2018-11-03T20:14:34.926Z,0.19
2018-11-03T20:17:15.774Z,0.10
2018-11-03T20:20:13.844Z,-0.04
2018-11-03T20:22:56.590Z,-0.15
2018-11-03T20:25:32.823Z,-0.25
2018-11-03T20:28:11.240Z,-0.31
2018-11-03T20:31:00.656Z,-0.36
2018-11-03T20:33:47.704Z,-0.37
2018-11-03T20:36:24.578Z,-0.42
2018-11-03T20:39:04.789Z,-0.43
2018-11-03T20:41:46.777Z,-0.42
2018-11-03T20:48:06.422Z,-0.11
2018-11-03T20:51:08.077Z,-0.24
2018-11-03T20:53:49.582Z,-0.24
2018-11-03T20:56:25.283Z,-0.16
2018-11-03T20:59:00.519Z,-0.10
2018-11-03T21:01:38.540Z,0.00
2018-11-03T21:04:13.385Z,0.18
2018-11-03T21:06:47.723Z,0.38
2018-11-03T21:09:25.146Z,0.72
2018-11-03T21:12:08.408Z,1.03
2018-11-03T21:14:46.199Z,1.36
2018-11-03T21:17:26.733Z,1.67
2018-11-03T21:20:04.023Z,1.78
2018-11-03T21:22:52.587Z,1.95
2018-11-03T21:25:31.800Z,2.06
2018-11-03T21:28:13.690Z,2.06
2018-11-03T21:30:48.348Z,2.12
2018-11-03T21:33:25.940Z,2.23
2018-11-03T21:36:07.724Z,2.22
2018-11-03T21:38:51.877Z,2.28
2018-11-03T21:41:34.088Z,2.42
2018-11-03T21:44:11.176Z,2.36
2018-11-03T21:46:58.943Z,2.35
2018-11-03T21:49:39.704Z,2.35
2018-11-03T21:52:19.549Z,2.39
2018-11-03T21:54:54.487Z,2.30
2018-11-03T21:57:33.507Z,2.36
2018-11-03T22:00:31.941Z,2.56
2018-11-03T22:03:11.366Z,2.73
2018-11-03T22:05:49.767Z,2.65
2018-11-03T22:08:36.669Z,2.42
2018-11-03T22:11:24.849Z,2.24
2018-11-03T22:14:17.753Z,2.07
2018-11-03T22:16:59.650Z,2.21
2018-11-03T22:19:40.550Z,2.15
2018-11-03T22:22:18.697Z,2.15
2018-11-03T22:24:55.456Z,2.35
2018-11-03T22:27:31.193Z,2.23
2018-11-03T22:30:14.542Z,2.16
2018-11-03T22:32:49.728Z,2.09
2018-11-03T22:35:26.231Z,2.17
2018-11-03T22:38:01.064Z,2.00
2018-11-03T22:40:38.151Z,1.78
2018-11-03T22:43:15.417Z,1.77
2018-11-03T22:45:52.572Z,1.83
2018-11-03T22:48:27.321Z,1.95
2018-11-03T22:54:03.982Z,2.04
2018-11-03T22:56:49.508Z,2.15
2018-11-03T22:59:42.694Z,2.33
2018-11-03T23:02:16.961Z,2.25
2018-11-03T23:04:53.935Z,2.09
2018-11-03T23:07:31.272Z,1.96
2018-11-03T23:10:07.682Z,1.82
2018-11-03T23:12:44.807Z,1.86
2018-11-03T23:15:22.325Z,1.84
2018-11-03T23:17:59.610Z,1.75
2018-11-03T23:20:33.455Z,1.67
2018-11-03T23:23:08.537Z,1.60
2018-11-03T23:25:42.842Z,1.60
2018-11-03T23:28:21.518Z,1.55
2018-11-03T23:31:03.592Z,1.43
2018-11-03T23:33:37.207Z,1.31
2018-11-03T23:36:12.651Z,1.20
2018-11-03T23:38:53.212Z,1.16
2018-11-03T23:41:28.624Z,0.96
2018-11-03T23:44:02.776Z,0.75
2018-11-03T23:46:36.778Z,0.60
2018-11-03T23:49:09.755Z,0.50
2018-11-03T23:51:43.489Z,0.60
2018-11-03T23:54:18.682Z,0.81
2018-11-03T23:56:54.177Z,0.88
2018-11-03T23:59:32.806Z,0.98
